Time;durP1;ratioP1;P1;durP2;ratioP2;P2;SDS_P1;SDS_P2;PMS_P1;PMS_P2;Temp;Humidity;BMP_temperature;BMP_pressure;BME280_temperature;BME280_humidity;BME280_pressure;Samples;Min_cycle;Max_cycle;Signal;HPM_P1;HPM_P2
2024/01/27 00:00:50;;;;;;;21.98;15.25;;;10.20;96.70;;;;;;5077224;28;20382;-82
2024/01/27 00:03:19;;;;;;;24.02;17.02;;;10.20;96.70;;;;;;5077659;28;20063;-81
2024/01/27 00:05:50;;;;;;;19.50;14.65;;;10.20;96.70;;;;;;5077936;28;20052;-81
2024/01/27 00:08:21;;;;;;;21.02;14.98;;;10.20;96.70;;;;;;5081697;28;20703;-81
2024/01/27 00:10:51;;;;;;;18.60;14.85;;;10.20;96.70;;;;;;5074972;28;20056;-81
2024/01/27 00:13:20;;;;;;;16.42;12.93;;;10.20;96.70;;;;;;5073146;28;20576;-80
2024/01/27 00:15:49;;;;;;;18.40;13.82;;;10.20;96.70;;;;;;5086409;28;20637;-80
2024/01/27 00:18:17;;;;;;;19.45;13.45;;;10.20;96.70;;;;;;5086125;28;20732;-81
2024/01/27 00:20:46;;;;;;;17.15;14.00;;;10.20;96.70;;;;;;5066311;28;20587;-80
2024/01/27 00:23:15;;;;;;;18.67;12.90;;;10.20;96.70;;;;;;5071275;28;20067;-79
2024/01/27 00:25:44;;;;;;;20.98;14.18;;;10.20;96.70;;;;;;5077069;28;20049;-83
2024/01/27 00:28:14;;;;;;;17.75;13.25;;;10.20;96.70;;;;;;5081275;28;20053;-81
2024/01/27 00:30:43;;;;;;;17.75;12.73;;;10.30;96.70;;;;;;5073394;28;20195;-82
2024/01/27 00:33:11;;;;;;;19.27;13.38;;;10.30;96.70;;;;;;5073316;28;20532;-81
2024/01/27 00:35:39;;;;;;;15.90;12.05;;;10.20;96.70;;;;;;5079044;28;20063;-81
2024/01/27 00:38:08;;;;;;;13.70;11.43;;;10.20;96.70;;;;;;5080790;28;20476;-81
2024/01/27 00:40:36;;;;;;;20.90;13.20;;;10.20;96.70;;;;;;5083404;28;20058;-81
2024/01/27 00:43:08;;;;;;;17.00;11.55;;;10.20;96.70;;;;;;5075321;28;20994;-81
2024/01/27 00:45:38;;;;;;;15.25;12.48;;;10.30;96.70;;;;;;5076857;28;20096;-81
2024/01/27 00:48:07;;;;;;;17.27;11.57;;;10.30;96.70;;;;;;5074025;28;20048;-82
2024/01/27 00:50:36;;;;;;;14.55;11.02;;;10.30;96.70;;;;;;5083468;28;20055;-79
2024/01/27 00:53:04;;;;;;;15.27;11.27;;;10.20;96.70;;;;;;5063960;28;20523;-81
2024/01/27 00:55:57;;;;;;;15.00;11.20;;;10.20;96.70;;;;;;5066076;28;20167;-81
2024/01/27 00:58:26;;;;;;;15.05;10.68;;;10.20;96.70;;;;;;5065310;28;20639;-81
2024/01/27 01:00:58;;;;;;;15.13;10.93;;;10.20;96.70;;;;;;5068908;28;20040;-81
2024/01/27 01:03:26;;;;;;;14.40;10.30;;;10.20;96.70;;;;;;5057574;28;20524;-81
2024/01/27 01:06:04;;;;;;;16.48;11.60;;;10.20;96.70;;;;;;5065207;28;20049;-81
2024/01/27 01:08:33;;;;;;;14.52;11.50;;;10.20;96.70;;;;;;5055890;28;20060;-80
2024/01/27 01:11:02;;;;;;;13.85;11.45;;;10.20;96.70;;;;;;5067685;28;20055;-81
2024/01/27 01:13:30;;;;;;;13.68;10.38;;;10.20;96.70;;;;;;5064633;28;20087;-81
2024/01/27 01:16:00;;;;;;;14.95;10.55;;;10.20;96.70;;;;;;5065423;28;20057;-81
2024/01/27 01:18:32;;;;;;;13.50;10.50;;;10.20;96.70;;;;;;5069649;28;20056;-80
2024/01/27 01:21:01;;;;;;;12.82;10.27;;;10.20;96.70;;;;;;5064519;28;20055;-80
2024/01/27 01:23:29;;;;;;;14.20;10.55;;;10.20;96.70;;;;;;5066329;28;20057;-80
2024/01/27 01:26:00;;;;;;;13.63;10.10;;;10.20;96.70;;;;;;5065754;28;20914;-81
2024/01/27 01:28:29;;;;;;;14.85;10.25;;;10.20;96.70;;;;;;5066302;28;20673;-80
2024/01/27 01:31:41;;;;;;;14.27;10.73;;;10.20;96.70;;;;;;5053413;28;20045;-80
2024/01/27 01:34:00;;;;;;;;;;;;;;;;;;;;;
2024/01/27 01:36:38;;;;;;;15.50;10.43;;;10.30;96.70;;;;;;5063318;28;20556;-80
2024/01/27 01:39:07;;;;;;;15.73;10.00;;;10.30;96.70;;;;;;5074730;28;20056;-80
2024/01/27 01:41:35;;;;;;;12.18;9.90;;;10.20;96.70;;;;;;5052444;28;20933;-80
2024/01/27 01:44:04;;;;;;;15.38;10.48;;;10.20;96.70;;;;;;5063593;28;20223;-81
2024/01/27 01:46:38;;;;;;;13.30;9.57;;;10.20;96.70;;;;;;5057702;28;20052;-80
2024/01/27 01:49:07;;;;;;;12.20;9.82;;;10.20;96.70;;;;;;5067021;28;20130;-79
2024/01/27 01:51:36;;;;;;;14.02;9.75;;;10.20;96.70;;;;;;5058484;28;20044;-80
2024/01/27 01:54:05;;;;;;;12.43;9.80;;;10.20;96.70;;;;;;5087531;28;20130;-80
2024/01/27 01:56:33;;;;;;;12.63;9.73;;;10.20;96.70;;;;;;5085227;28;20488;-80
2024/01/27 01:59:02;;;;;;;12.23;9.88;;;10.20;96.70;;;;;;5085578;28;20063;-80
2024/01/27 02:01:30;;;;;;;12.60;9.20;;;10.20;96.70;;;;;;5078395;28;20068;-80
2024/01/27 02:04:00;;;;;;;12.60;9.23;;;10.20;96.70;;;;;;5078404;28;20053;-80
2024/01/27 02:06:29;;;;;;;13.52;9.38;;;10.20;96.70;;;;;;5088880;28;20062;-79
2024/01/27 02:08:58;;;;;;;10.05;8.75;;;10.20;96.70;;;;;;5087835;28;20504;-80
2024/01/27 02:11:27;;;;;;;10.48;8.70;;;10.20;96.70;;;;;;5083490;28;20131;-79
2024/01/27 02:13:55;;;;;;;10.70;9.10;;;10.20;96.70;;;;;;5088521;28;20410;-80
2024/01/27 02:16:23;;;;;;;9.82;8.73;;;10.10;96.70;;;;;;5082971;28;20056;-80
2024/01/27 02:18:52;;;;;;;11.98;8.70;;;10.10;96.70;;;;;;5085360;28;20112;-80
2024/01/27 02:21:22;;;;;;;11.15;8.35;;;10.10;96.70;;;;;;5086507;28;20509;-81
2024/01/27 02:23:51;;;;;;;9.43;8.32;;;10.10;96.70;;;;;;5085747;28;20052;-79
2024/01/27 02:26:21;;;;;;;10.68;8.38;;;10.10;96.70;;;;;;5084213;28;20139;-79
2024/01/27 02:28:52;;;;;;;10.68;8.57;;;10.10;96.70;;;;;;5071567;28;20475;-79
2024/01/27 02:31:20;;;;;;;12.63;9.38;;;10.10;96.70;;;;;;5087613;28;20576;-79
2024/01/27 02:33:49;;;;;;;10.93;8.27;;;10.10;96.70;;;;;;5088120;28;20052;-80
2024/01/27 02:36:29;;;;;;;11.82;9.23;;;10.20;96.70;;;;;;5097444;28;20105;-79
2024/01/27 02:39:00;;;;;;;12.02;8.68;;;10.20;96.70;;;;;;5085624;28;20062;-79
2024/01/27 02:41:30;;;;;;;12.30;8.98;;;10.20;96.70;;;;;;5087473;28;20044;-79
2024/01/27 02:43:58;;;;;;;12.45;9.43;;;10.20;96.70;;;;;;5086681;28;20044;-80
2024/01/27 02:46:26;;;;;;;11.23;9.63;;;10.20;96.70;;;;;;5089080;28;20129;-79
2024/01/27 02:48:55;;;;;;;12.02;9.85;;;10.20;96.70;;;;;;5086386;28;20064;-79
2024/01/27 02:51:23;;;;;;;11.10;9.30;;;10.20;96.70;;;;;;5084548;28;20045;-79
2024/01/27 02:53:52;;;;;;;11.93;8.60;;;10.20;96.70;;;;;;5077844;28;20048;-79
2024/01/27 02:56:20;;;;;;;12.13;9.18;;;10.20;96.70;;;;;;5085796;28;20510;-79
2024/01/27 02:58:50;;;;;;;10.45;8.13;;;10.20;96.70;;;;;;5082706;28;20048;-80
2024/01/27 03:01:21;;;;;;;12.20;9.27;;;10.20;96.70;;;;;;5081557;28;20052;-80
2024/01/27 03:03:49;;;;;;;11.27;8.88;;;10.20;96.70;;;;;;5084172;28;20117;-80
2024/01/27 03:06:20;;;;;;;10.05;8.52;;;10.20;96.70;;;;;;5086404;28;20087;-80
2024/01/27 03:08:49;;;;;;;11.07;9.10;;;10.20;96.70;;;;;;5081624;28;20626;-80
2024/01/27 03:11:17;;;;;;;13.85;8.68;;;10.20;96.70;;;;;;5081308;28;20131;-79
2024/01/27 03:13:47;;;;;;;11.02;8.70;;;10.20;96.70;;;;;;5072258;28;20056;-79
2024/01/27 03:16:18;;;;;;;11.80;8.73;;;10.20;96.70;;;;;;5076648;28;20060;-79
2024/01/27 03:18:47;;;;;;;12.25;9.00;;;10.20;96.70;;;;;;5084320;28;20047;-79
2024/01/27 03:21:15;;;;;;;11.30;8.90;;;10.20;96.70;;;;;;5080181;28;20049;-79
2024/01/27 03:23:43;;;;;;;12.68;9.75;;;10.20;96.70;;;;;;5085491;28;20081;-79
2024/01/27 03:26:13;;;;;;;11.20;9.05;;;10.10;96.70;;;;;;5082656;28;20139;-79
2024/01/27 03:28:41;;;;;;;10.40;8.82;;;10.10;96.70;;;;;;5058788;28;20064;-79
2024/01/27 03:31:13;;;;;;;10.60;8.50;;;10.10;96.70;;;;;;5076522;28;20413;-79
2024/01/27 03:33:43;;;;;;;10.80;8.88;;;10.10;96.70;;;;;;5087146;28;20079;-79
2024/01/27 03:36:13;;;;;;;11.38;8.25;;;10.10;96.70;;;;;;5064899;28;20052;-79
2024/01/27 03:38:46;;;;;;;11.20;8.32;;;10.10;96.70;;;;;;5059211;28;20105;-79
2024/01/27 03:41:14;;;;;;;12.07;9.30;;;10.00;96.70;;;;;;5079621;28;20504;-79
2024/01/27 03:43:43;;;;;;;12.25;8.90;;;10.00;96.70;;;;;;5082059;28;20137;-78
2024/01/27 03:46:11;;;;;;;12.18;9.00;;;10.00;96.70;;;;;;5084033;28;20062;-80
2024/01/27 03:48:39;;;;;;;12.13;8.82;;;10.00;96.70;;;;;;5083372;28;20044;-79
2024/01/27 03:51:09;;;;;;;10.68;8.63;;;9.90;96.70;;;;;;5076278;28;20090;-79
2024/01/27 03:53:40;;;;;;;9.95;8.80;;;9.90;96.70;;;;;;5081655;28;20138;-79
2024/01/27 03:56:12;;;;;;;10.40;8.70;;;9.90;96.70;;;;;;5068158;28;20650;-79
2024/01/27 03:58:40;;;;;;;11.52;9.27;;;9.90;96.70;;;;;;5084530;28;20052;-79
2024/01/27 04:01:08;;;;;;;11.23;9.20;;;9.80;96.70;;;;;;5078687;28;20047;-79
2024/01/27 04:03:38;;;;;;;10.75;8.63;;;9.80;96.70;;;;;;5072710;28;20052;-79
2024/01/27 04:06:08;;;;;;;11.77;8.95;;;9.70;96.70;;;;;;5075851;28;20604;-79
2024/01/27 04:08:37;;;;;;;11.32;9.00;;;9.70;96.70;;;;;;5081190;28;20599;-80
2024/01/27 04:11:06;;;;;;;10.50;8.75;;;9.60;96.70;;;;;;5083004;28;20059;-79
2024/01/27 04:13:35;;;;;;;11.02;8.95;;;9.60;96.70;;;;;;5077838;28;20056;-79
2024/01/27 04:16:03;;;;;;;11.93;9.55;;;9.50;96.70;;;;;;5076278;28;20136;-79
2024/01/27 04:18:32;;;;;;;12.02;9.18;;;9.50;96.70;;;;;;5064315;28;20079;-80
2024/01/27 04:21:01;;;;;;;11.20;9.23;;;9.50;96.70;;;;;;5077261;28;20052;-79
2024/01/27 04:23:30;;;;;;;10.55;8.75;;;9.40;96.70;;;;;;5070759;28;20048;-80
2024/01/27 04:25:58;;;;;;;13.52;8.90;;;9.40;96.70;;;;;;5060951;28;20052;-79
2024/01/27 04:28:27;;;;;;;12.13;9.25;;;9.30;96.70;;;;;;5076133;28;20582;-79
2024/01/27 04:30:55;;;;;;;12.05;8.80;;;9.30;96.70;;;;;;5080954;28;20986;-79
2024/01/27 04:33:23;;;;;;;12.23;8.80;;;9.30;96.70;;;;;;5061214;28;20055;-79
2024/01/27 04:35:52;;;;;;;9.48;8.35;;;9.20;96.70;;;;;;5067800;28;20080;-80
2024/01/27 04:38:22;;;;;;;12.02;9.25;;;9.20;96.70;;;;;;5084304;28;20074;-80
2024/01/27 04:40:52;;;;;;;11.32;8.75;;;9.10;96.70;;;;;;5082939;28;20052;-79
2024/01/27 04:43:21;;;;;;;10.45;8.73;;;9.10;96.70;;;;;;5083418;28;20059;-79
2024/01/27 04:45:49;;;;;;;10.50;8.00;;;9.00;96.70;;;;;;5076119;28;20539;-79
2024/01/27 04:48:52;;;;;;;11.43;8.00;;;9.00;96.70;;;;;;5023047;28;20049;-79
2024/01/27 04:51:20;;;;;;;10.60;8.18;;;9.00;96.70;;;;;;5018316;28;20089;-79
2024/01/27 04:53:48;;;;;;;11.80;8.25;;;9.00;96.70;;;;;;5023217;28;20103;-79
2024/01/27 04:56:19;;;;;;;10.40;7.78;;;9.00;96.70;;;;;;5023457;28;20139;-79
2024/01/27 04:58:47;;;;;;;12.55;8.63;;;9.00;96.70;;;;;;5019988;28;20471;-79
2024/01/27 05:01:15;;;;;;;10.15;8.05;;;8.90;96.70;;;;;;5021812;28;20335;-80
2024/01/27 05:03:44;;;;;;;9.48;8.05;;;8.90;96.70;;;;;;5015637;28;20577;-79
2024/01/27 05:06:13;;;;;;;11.15;7.85;;;8.90;96.70;;;;;;5022259;28;20068;-80
2024/01/27 05:08:41;;;;;;;10.88;7.95;;;8.80;96.70;;;;;;5028084;28;20052;-79
2024/01/27 05:11:10;;;;;;;9.05;7.60;;;8.80;96.70;;;;;;5026701;28;20099;-79
2024/01/27 05:13:40;;;;;;;12.15;8.30;;;8.80;96.70;;;;;;5023114;28;20415;-79
2024/01/27 05:16:09;;;;;;;10.32;8.20;;;8.70;96.70;;;;;;5029910;28;20111;-79
2024/01/27 05:18:37;;;;;;;12.88;8.50;;;8.70;96.70;;;;;;5022985;28;20057;-79
2024/01/27 05:21:06;;;;;;;8.55;7.47;;;8.70;96.70;;;;;;5017681;28;20105;-78
2024/01/27 05:23:35;;;;;;;11.07;8.13;;;8.70;96.70;;;;;;5028526;28;20050;-79
2024/01/27 05:26:13;;;;;;;10.88;8.32;;;8.60;96.70;;;;;;5081683;28;20044;-78
2024/01/27 05:28:43;;;;;;;10.30;7.43;;;8.60;96.70;;;;;;5067611;28;20521;-78
2024/01/27 05:31:11;;;;;;;9.80;8.10;;;8.60;96.70;;;;;;5078194;28;20052;-78
2024/01/27 05:33:42;;;;;;;12.05;8.45;;;8.60;96.70;;;;;;5081606;28;20040;-78
2024/01/27 05:36:11;;;;;;;10.02;7.88;;;8.60;96.70;;;;;;5077164;28;20487;-78
2024/01/27 05:38:39;;;;;;;11.18;8.00;;;8.60;96.70;;;;;;5084293;28;20489;-79
2024/01/27 05:41:08;;;;;;;10.00;7.95;;;8.50;96.70;;;;;;5086020;28;20091;-79
2024/01/27 05:43:43;;;;;;;12.60;8.05;;;8.50;96.70;;;;;;5079130;28;20448;-79
2024/01/27 05:46:11;;;;;;;10.40;8.25;;;8.50;96.70;;;;;;5080841;28;20736;-79
2024/01/27 05:48:39;;;;;;;10.70;8.35;;;8.50;96.70;;;;;;5080528;28;20052;-79
2024/01/27 05:51:08;;;;;;;10.32;8.25;;;8.40;96.70;;;;;;5081563;28;20056;-80
2024/01/27 05:53:37;;;;;;;11.20;8.55;;;8.50;96.70;;;;;;5078647;28;20048;-79
2024/01/27 05:56:05;;;;;;;10.25;7.97;;;8.40;96.70;;;;;;5077244;28;20801;-78
2024/01/27 05:58:33;;;;;;;8.90;7.80;;;8.40;96.70;;;;;;5076666;28;20608;-79
2024/01/27 06:01:03;;;;;;;9.93;7.60;;;8.40;96.70;;;;;;5084075;28;20420;-78
2024/01/27 06:03:46;;;;;;;12.40;8.60;;;8.30;96.70;;;;;;5082422;28;20036;-79
2024/01/27 06:06:15;;;;;;;10.40;8.02;;;8.30;96.70;;;;;;5070441;28;20114;-79
2024/01/27 06:08:46;;;;;;;9.68;7.85;;;8.30;96.70;;;;;;5062102;28;20505;-78
2024/01/27 06:11:22;;;;;;;9.65;7.45;;;8.30;96.70;;;;;;5079183;28;20764;-78
2024/01/27 06:13:53;;;;;;;10.10;7.60;;;8.30;96.70;;;;;;5078341;28;20052;-78
2024/01/27 06:16:23;;;;;;;8.98;7.05;;;8.20;96.70;;;;;;5067280;28;20099;-78
2024/01/27 06:18:53;;;;;;;11.35;7.18;;;8.20;96.70;;;;;;5064494;28;20152;-78
2024/01/27 06:21:22;;;;;;;9.52;7.65;;;8.10;96.70;;;;;;5078693;28;20823;-78
2024/01/27 06:23:50;;;;;;;9.85;7.65;;;8.10;96.70;;;;;;5081245;28;20547;-78
2024/01/27 06:26:18;;;;;;;8.98;6.88;;;8.10;96.70;;;;;;5084008;28;20504;-81
2024/01/27 06:28:48;;;;;;;13.48;7.45;;;8.00;96.70;;;;;;5079700;28;20114;-81
2024/01/27 06:31:17;;;;;;;13.13;8.82;;;8.00;96.70;;;;;;5083993;28;20048;-79
2024/01/27 06:34:15;;;;;;;13.02;10.55;;;7.90;96.70;;;;;;5080436;28;20052;-79
2024/01/27 06:36:45;;;;;;;10.60;9.13;;;7.90;96.70;;;;;;5063583;28;20633;-83
2024/01/27 06:39:13;;;;;;;10.73;8.60;;;7.90;96.70;;;;;;5070135;28;20417;-83
2024/01/27 06:41:42;;;;;;;10.20;8.25;;;7.90;96.70;;;;;;5077174;28;20063;-81
2024/01/27 06:44:14;;;;;;;8.73;7.78;;;7.80;96.70;;;;;;5083177;28;20055;-83
2024/01/27 06:46:44;;;;;;;8.35;7.35;;;7.80;96.70;;;;;;5074912;28;20056;-84
2024/01/27 06:49:15;;;;;;;8.40;6.68;;;7.80;96.70;;;;;;5080064;28;20060;-84
2024/01/27 06:51:44;;;;;;;10.45;7.75;;;7.70;96.70;;;;;;5070524;28;20102;-82
2024/01/27 06:54:12;;;;;;;10.73;8.02;;;7.70;96.70;;;;;;5073771;28;20048;-84
2024/01/27 06:56:41;;;;;;;10.00;8.35;;;7.70;96.70;;;;;;5076963;28;20060;-84
2024/01/27 06:59:19;;;;;;;;;;;;;;;;;;;;;
2024/01/27 07:02:14;;;;;;;10.98;8.05;;;7.70;96.70;;;;;;5084344;28;20057;-83
2024/01/27 07:05:38;;;;;;;9.77;8.73;;;7.70;96.70;;;;;;5063015;28;20056;-84
2024/01/27 07:08:09;;;;;;;12.25;8.82;;;7.70;96.70;;;;;;5075523;28;20045;-82
2024/01/27 07:10:40;;;;;;;10.43;7.22;;;7.70;96.70;;;;;;5060903;28;20053;-88
2024/01/27 07:13:09;;;;;;;9.95;8.32;;;7.70;96.70;;;;;;5072047;28;20060;-89
2024/01/27 07:15:38;;;;;;;10.40;7.72;;;7.60;96.70;;;;;;5085745;28;20048;-88
2024/01/27 07:18:07;;;;;;;11.77;9.18;;;7.50;96.70;;;;;;5062520;28;20536;-88
2024/01/27 07:20:40;;;;;;;9.73;8.20;;;7.50;96.70;;;;;;5071499;28;20509;-88
2024/01/27 07:23:11;;;;;;;9.48;7.55;;;7.50;96.70;;;;;;5085527;28;20515;-87
2024/01/27 07:25:40;;;;;;;9.48;8.15;;;7.50;96.70;;;;;;5085863;28;20053;-88
2024/01/27 07:28:09;;;;;;;10.52;8.27;;;7.40;96.70;;;;;;5086612;28;20053;-89
2024/01/27 07:30:39;;;;;;;7.63;6.82;;;7.30;96.70;;;;;;5072131;28;20060;-88
2024/01/27 07:33:11;;;;;;;9.38;7.55;;;7.30;96.70;;;;;;5084127;28;20102;-87
2024/01/27 07:35:49;;;;;;;7.60;6.80;;;7.30;96.70;;;;;;5087761;28;20102;-89
2024/01/27 07:38:21;;;;;;;8.20;7.22;;;7.40;96.70;;;;;;5084204;28;20048;-87
2024/01/27 07:41:02;;;;;;;9.85;7.45;;;7.40;96.70;;;;;;5082760;28;20058;-87
2024/01/27 07:43:34;;;;;;;11.30;7.82;;;7.30;96.70;;;;;;5074416;28;20052;-87
2024/01/27 07:46:03;;;;;;;11.13;8.05;;;7.30;96.70;;;;;;5087775;28;20056;-86
2024/01/27 07:48:37;;;;;;;8.48;6.85;;;7.30;96.70;;;;;;5076467;28;20045;-88
2024/01/27 07:51:06;;;;;;;9.40;7.93;;;7.30;96.70;;;;;;5072744;28;20496;-87
2024/01/27 07:53:36;;;;;;;10.43;7.85;;;7.30;96.70;;;;;;5090789;28;20460;-88
2024/01/27 07:56:07;;;;;;;11.32;9.02;;;7.30;96.70;;;;;;5092314;28;20058;-87
2024/01/27 07:58:35;;;;;;;11.18;8.05;;;7.20;96.70;;;;;;5090422;28;20588;-86
2024/01/27 08:01:04;;;;;;;10.10;8.55;;;7.20;96.70;;;;;;5082513;28;20075;-87
2024/01/27 08:03:33;;;;;;;13.50;8.93;;;7.20;96.70;;;;;;5091872;28;20566;-88
2024/01/27 08:06:05;;;;;;;10.13;7.97;;;7.10;96.70;;;;;;5096441;28;20751;-89
2024/01/27 08:08:35;;;;;;;11.10;7.82;;;7.10;96.70;;;;;;5085462;28;20076;-87
2024/01/27 08:11:04;;;;;;;10.63;8.55;;;7.20;96.70;;;;;;5074114;28;20086;-88
2024/01/27 08:13:33;;;;;;;10.30;8.57;;;7.20;96.70;;;;;;5092039;28;20040;-88
2024/01/27 08:16:01;;;;;;;11.23;8.43;;;7.20;96.70;;;;;;5090823;28;20052;-87
2024/01/27 08:18:29;;;;;;;10.95;8.80;;;7.20;96.70;;;;;;5090171;28;20054;-88
2024/01/27 08:20:58;;;;;;;11.30;8.10;;;7.30;96.70;;;;;;5090408;28;20087;-87
2024/01/27 08:23:26;;;;;;;10.07;8.80;;;7.40;96.70;;;;;;5091669;28;20135;-87
2024/01/27 08:25:56;;;;;;;11.48;8.40;;;7.40;96.70;;;;;;5089362;28;20059;-87
2024/01/27 08:28:24;;;;;;;12.10;9.40;;;7.50;96.70;;;;;;5090560;28;20070;-85
2024/01/27 08:31:04;;;;;;;10.52;9.35;;;7.50;96.70;;;;;;5081562;28;20394;-86
2024/01/27 08:33:48;;;;;;;11.65;9.65;;;7.50;96.70;;;;;;5079496;28;20044;-86
2024/01/27 08:36:27;;;;;;;11.80;10.07;;;7.70;96.70;;;;;;5085795;28;20063;-86
2024/01/27 08:38:56;;;;;;;13.40;9.55;;;7.70;96.70;;;;;;5090265;28;20060;-86
2024/01/27 08:41:26;;;;;;;13.25;9.57;;;7.80;96.70;;;;;;5068535;28;20590;-87
2024/01/27 08:44:06;;;;;;;12.90;9.80;;;7.90;96.70;;;;;;5091312;28;20052;-86
2024/01/27 08:46:37;;;;;;;13.48;9.63;;;8.00;96.70;;;;;;5088609;28;20149;-87
2024/01/27 08:49:05;;;;;;;12.75;10.60;;;8.10;96.70;;;;;;5091417;28;20052;-85
2024/01/27 08:51:35;;;;;;;14.23;10.82;;;8.10;96.70;;;;;;5090673;28;20150;-86
2024/01/27 08:54:04;;;;;;;11.65;9.82;;;8.20;96.70;;;;;;5086684;28;20444;-87
2024/01/27 08:56:40;;;;;;;16.90;10.82;;;8.20;96.70;;;;;;5084349;28;20127;-85
2024/01/27 08:59:09;;;;;;;13.63;10.48;;;8.40;96.70;;;;;;5084463;28;20055;-86
2024/01/27 09:01:37;;;;;;;15.10;10.45;;;8.40;96.70;;;;;;5071602;28;20052;-86
2024/01/27 09:04:07;;;;;;;13.80;11.82;;;8.50;96.70;;;;;;5085465;28;20136;-86
2024/01/27 09:06:36;;;;;;;15.38;11.43;;;8.50;96.70;;;;;;5078336;28;20044;-86
2024/01/27 09:09:04;;;;;;;13.60;11.75;;;8.60;96.70;;;;;;5084785;28;20103;-87
2024/01/27 09:11:35;;;;;;;13.73;11.48;;;8.70;96.70;;;;;;5084009;28;20060;-87
2024/01/27 09:14:07;;;;;;;15.07;12.25;;;8.80;96.70;;;;;;5079270;28;20063;-86
2024/01/27 09:16:36;;;;;;;13.43;11.75;;;8.90;96.70;;;;;;5086351;28;20060;-86
2024/01/27 09:19:04;;;;;;;17.85;13.25;;;9.00;96.70;;;;;;5094787;28;20062;-87
2024/01/27 09:21:33;;;;;;;17.13;12.95;;;9.10;96.70;;;;;;5079663;28;20064;-86
2024/01/27 09:24:02;;;;;;;16.13;13.25;;;9.20;96.70;;;;;;5075302;28;20055;-88
2024/01/27 09:26:31;;;;;;;19.85;14.18;;;9.30;96.70;;;;;;5084249;28;20501;-84
2024/01/27 09:29:02;;;;;;;21.70;14.77;;;9.40;96.70;;;;;;5075725;28;20056;-86
2024/01/27 09:31:30;;;;;;;26.60;17.75;;;9.50;96.70;;;;;;5073479;28;20106;-86
2024/01/27 09:34:01;;;;;;;20.67;16.85;;;9.60;96.70;;;;;;5090715;28;20075;-86
2024/01/27 09:36:30;;;;;;;23.10;17.00;;;9.70;96.70;;;;;;5085305;28;20052;-86
2024/01/27 09:38:59;;;;;;;22.98;18.45;;;9.80;96.70;;;;;;5080704;28;20063;-85
2024/01/27 09:41:34;;;;;;;24.08;19.48;;;9.90;96.70;;;;;;5075949;28;20088;-85
2024/01/27 09:44:05;;;;;;;25.13;19.30;;;10.10;96.70;;;;;;5085177;28;20117;-86
2024/01/27 09:46:34;;;;;;;26.02;20.42;;;10.20;96.70;;;;;;5082748;28;20052;-87
2024/01/27 09:49:04;;;;;;;25.35;20.15;;;10.30;96.70;;;;;;5094157;28;20119;-87
2024/01/27 09:51:34;;;;;;;23.73;19.48;;;10.50;96.70;;;;;;5084216;28;20127;-86
2024/01/27 09:54:03;;;;;;;21.73;17.70;;;10.60;96.70;;;;;;5083569;28;20105;-86
2024/01/27 09:56:32;;;;;;;23.95;17.45;;;10.70;96.70;;;;;;5083673;28;20052;-87
2024/01/27 09:59:01;;;;;;;20.90;16.50;;;10.80;96.70;;;;;;5083818;28;20139;-88
2024/01/27 10:01:35;;;;;;;20.02;16.55;;;10.90;96.70;;;;;;5083256;28;20515;-87
2024/01/27 10:04:04;;;;;;;18.60;14.50;;;10.90;96.70;;;;;;5075066;28;20048;-86
2024/01/27 10:06:34;;;;;;;18.02;14.75;;;11.00;96.70;;;;;;5096019;28;20168;-85
2024/01/27 10:09:03;;;;;;;20.40;14.55;;;11.10;96.70;;;;;;5088359;28;20113;-86
2024/01/27 10:11:36;;;;;;;16.52;13.55;;;11.20;96.70;;;;;;5073222;28;20049;-86
2024/01/27 10:14:05;;;;;;;18.30;15.20;;;11.30;96.70;;;;;;5076854;28;20054;-87
2024/01/27 10:16:42;;;;;;;17.00;13.35;;;11.40;96.70;;;;;;5084420;28;20048;-87
2024/01/27 10:19:18;;;;;;;17.42;14.00;;;11.50;96.70;;;;;;5090075;28;20052;-86
2024/01/27 10:21:48;;;;;;;15.30;12.88;;;11.60;96.70;;;;;;5079578;28;20052;-86
2024/01/27 10:24:17;;;;;;;15.75;12.18;;;11.70;96.70;;;;;;5076473;28;20058;-87
2024/01/27 10:26:47;;;;;;;16.48;13.02;;;11.80;96.70;;;;;;5075608;28;20052;-87
2024/01/27 10:29:57;;;;;;;16.52;12.73;;;12.00;96.70;;;;;;5088541;28;20063;-88
2024/01/27 10:32:28;;;;;;;16.65;12.75;;;12.00;96.70;;;;;;5085250;28;20083;-87
2024/01/27 10:35:13;;;;;;;15.73;12.35;;;12.20;96.70;;;;;;5078942;28;20048;-86
2024/01/27 10:37:43;;;;;;;;;;;12.30;96.70;;;;;;5082264;28;20056;-86
2024/01/27 10:40:13;;;;;;;15.73;13.10;;;12.40;96.70;;;;;;5082047;28;19921;-87
2024/01/27 10:42:44;;;;;;;15.70;12.73;;;12.50;96.70;;;;;;5075916;28;20084;-85
2024/01/27 10:45:13;;;;;;;16.50;13.45;;;12.60;96.70;;;;;;5087395;28;20051;-86
2024/01/27 10:47:44;;;;;;;16.50;11.88;;;12.60;96.70;;;;;;5085688;28;20078;-87
2024/01/27 10:50:13;;;;;;;16.98;12.52;;;12.70;96.70;;;;;;5085029;28;20052;-87
2024/01/27 10:52:46;;;;;;;17.30;13.93;;;12.70;96.70;;;;;;5092333;28;20059;-87
2024/01/27 10:55:15;;;;;;;16.90;11.68;;;12.70;96.70;;;;;;5077572;28;20052;-87
2024/01/27 10:57:48;;;;;;;15.48;11.45;;;12.80;96.70;;;;;;5076290;28;20080;-85
2024/01/27 11:00:18;;;;;;;15.02;12.48;;;12.90;96.70;;;;;;5084645;28;20086;-87
2024/01/27 11:02:53;;;;;;;16.60;12.02;;;13.00;96.70;;;;;;5085746;28;20052;-87
2024/01/27 11:05:25;;;;;;;16.83;11.52;;;13.10;96.70;;;;;;5083718;28;20132;-86
2024/01/27 11:07:59;;;;;;;13.80;10.85;;;13.20;96.70;;;;;;5084136;28;20052;-87
2024/01/27 11:10:35;;;;;;;14.00;10.70;;;13.30;96.70;;;;;;5084089;28;20489;-86
2024/01/27 11:13:05;;;;;;;12.68;9.27;;;13.40;96.70;;;;;;5075567;28;20048;-86
2024/01/27 11:15:35;;;;;;;15.77;9.80;;;13.50;96.70;;;;;;5075892;28;20045;-86
2024/01/27 11:18:06;;;;;;;11.32;9.70;;;13.50;96.70;;;;;;5073396;28;20056;-86
2024/01/27 11:20:36;;;;;;;11.23;9.02;;;13.50;96.70;;;;;;5075169;28;20056;-87
2024/01/27 11:23:10;;;;;;;12.35;9.68;;;13.50;96.70;;;;;;5058387;28;20056;-86
2024/01/27 11:25:39;;;;;;;12.05;9.30;;;13.60;96.70;;;;;;5092271;28;20472;-86
2024/01/27 11:28:15;;;;;;;12.35;9.30;;;13.70;96.70;;;;;;5067402;28;20063;-86
2024/01/27 11:30:46;;;;;;;12.25;8.93;;;13.80;96.70;;;;;;5089089;28;20057;-86
2024/01/27 11:33:18;;;;;;;11.75;9.18;;;13.80;96.70;;;;;;5072312;28;20599;-86
2024/01/27 11:35:48;;;;;;;10.85;8.82;;;13.90;96.70;;;;;;5083660;28;20048;-86
2024/01/27 11:38:16;;;;;;;10.57;8.65;;;14.00;96.70;;;;;;5073846;28;20072;-86
2024/01/27 11:40:46;;;;;;;11.00;7.80;;;14.10;96.70;;;;;;5065521;28;20061;-86
2024/01/27 11:43:14;;;;;;;9.73;7.45;;;14.10;96.70;;;;;;5087877;28;20044;-86
2024/01/27 11:45:43;;;;;;;10.75;7.40;;;14.20;96.70;;;;;;5084318;28;20075;-86
2024/01/27 11:48:12;;;;;;;10.05;7.65;;;14.30;96.70;;;;;;5077190;28;20063;-86
2024/01/27 11:50:43;;;;;;;8.50;6.28;;;14.40;96.70;;;;;;5073932;28;20053;-86
2024/01/27 11:53:12;;;;;;;11.18;7.20;;;14.50;96.70;;;;;;5086455;28;20109;-86
2024/01/27 11:55:41;;;;;;;12.75;8.40;;;14.60;96.70;;;;;;5082350;28;20040;-86
2024/01/27 11:58:14;;;;;;;9.85;7.97;;;14.70;96.70;;;;;;5076136;28;20052;-86
2024/01/27 12:00:43;;;;;;;10.07;7.30;;;14.80;96.70;;;;;;5084084;28;20053;-86
2024/01/27 12:03:12;;;;;;;10.93;7.93;;;14.80;96.70;;;;;;5072569;28;20053;-84
2024/01/27 12:05:43;;;;;;;10.65;7.07;;;14.90;96.70;;;;;;5095388;28;20574;-84
2024/01/27 12:08:12;;;;;;;13.18;8.00;;;15.00;96.70;;;;;;5081792;28;20048;-85
2024/01/27 12:10:42;;;;;;;10.52;7.63;;;15.20;96.70;;;;;;5073729;28;20687;-85
2024/01/27 12:13:11;;;;;;;9.23;7.75;;;15.20;96.70;;;;;;5072949;28;20059;-85
2024/01/27 12:15:40;;;;;;;10.18;8.15;;;15.30;96.70;;;;;;5065017;28;20496;-83
2024/01/27 12:18:12;;;;;;;12.18;9.63;;;15.40;96.70;;;;;;5074181;28;20052;-85
2024/01/27 12:20:41;;;;;;;10.85;8.10;;;15.60;96.70;;;;;;5083230;28;20047;-85
2024/01/27 12:23:11;;;;;;;10.38;8.02;;;15.70;96.70;;;;;;5081917;28;20056;-86
2024/01/27 12:25:40;;;;;;;10.93;7.43;;;15.70;96.70;;;;;;5090697;28;20052;-85
2024/01/27 12:28:11;;;;;;;12.80;8.70;;;15.70;96.70;;;;;;5084461;28;20048;-85
2024/01/27 12:30:40;;;;;;;9.95;8.02;;;15.80;96.70;;;;;;5091145;28;20131;-84
2024/01/27 12:33:13;;;;;;;9.73;7.60;;;15.90;96.70;;;;;;5091606;28;20081;-85
2024/01/27 12:35:43;;;;;;;11.75;7.88;;;16.00;96.70;;;;;;5082382;28;20420;-84
2024/01/27 12:38:13;;;;;;;10.55;9.00;;;16.10;96.70;;;;;;5090477;28;20059;-86
2024/01/27 12:40:43;;;;;;;10.60;6.70;;;16.10;96.70;;;;;;5084240;28;20768;-85
2024/01/27 12:43:12;;;;;;;9.98;7.28;;;16.10;96.70;;;;;;5090808;28;20109;-85
2024/01/27 12:45:43;;;;;;;7.53;6.00;;;16.20;96.70;;;;;;5075305;28;20056;-85
2024/01/27 12:48:12;;;;;;;11.93;6.70;;;16.30;96.70;;;;;;5056175;28;20075;-85
2024/01/27 12:50:41;;;;;;;9.40;6.25;;;16.50;96.70;;;;;;5072161;28;20056;-85
2024/01/27 12:53:12;;;;;;;11.43;6.32;;;16.50;96.70;;;;;;5079644;28;20060;-85
2024/01/27 12:55:43;;;;;;;8.23;5.78;;;16.50;96.70;;;;;;5084542;28;20135;-85
2024/01/27 12:58:13;;;;;;;8.82;6.05;;;16.70;96.70;;;;;;5080095;28;20052;-85
2024/01/27 13:00:43;;;;;;;8.38;5.63;;;16.80;96.70;;;;;;5073770;28;20048;-87